Time;durP1;ratioP1;P1;durP2;ratioP2;P2;SDS_P1;SDS_P2;PMS_P1;PMS_P2;Temp;Humidity;BMP_temperature;BMP_pressure;BME280_temperature;BME280_humidity;BME280_pressure;Samples;Min_cycle;Max_cycle;Signal;HPM_P1;HPM_P2
2022/04/15 15:32:38;;;;;;;7.30;2.00;;;;;;;17.47;100.00;99292.66;5088655;27;1311551;-66
2022/04/15 15:35:05;;;;;;;11.77;2.03;;;;;;;17.24;nan;99288.88;5096098;28;20027;-49
2022/04/15 15:40:19;;;;;;;11.05;1.77;;;;;;;17.38;100.00;99289.38;5093562;27;1299149;-52
2022/04/15 15:42:45;;;;;;;12.30;2.00;;;;;;;17.52;100.00;99296.00;5080981;27;20071;-47
2022/04/15 15:45:10;;;;;;;10.90;2.17;;;;;;;17.23;100.00;99289.81;5085644;28;20062;-54
2022/04/15 15:47:36;;;;;;;7.85;1.77;;;;;;;17.08;100.00;99291.09;5090141;28;20047;-56
2022/04/15 15:50:01;;;;;;;10.27;2.03;;;;;;;17.05;100.00;99286.75;5088660;28;20078;-52
2022/04/15 15:52:27;;;;;;;9.52;2.05;;;;;;;17.04;100.00;99292.94;5094397;28;20031;-51
2022/04/15 15:54:52;;;;;;;10.30;1.90;;;;;;;17.00;100.00;99280.75;5086621;28;20031;-53
2022/04/15 15:57:18;;;;;;;11.52;2.40;;;;;;;17.05;100.00;99285.91;5095477;28;20020;-52
2022/04/15 15:59:43;;;;;;;11.85;2.30;;;;;;;17.03;100.00;99278.03;5089677;28;20040;-55
2022/04/15 16:02:11;;;;;;;13.32;2.45;;;;;;;16.93;100.00;99276.56;5086664;28;20035;-48
2022/04/15 16:04:37;;;;;;;8.13;1.98;;;;;;;16.89;100.00;99265.22;5083300;28;20664;-48
2022/04/15 16:07:02;;;;;;;9.65;2.30;;;;;;;16.98;100.00;99284.31;5078110;28;20032;-48
2022/04/15 16:09:27;;;;;;;16.38;2.83;;;;;;;17.06;100.00;99282.34;5094838;28;20494;-48
2022/04/15 16:11:53;;;;;;;12.93;2.22;;;;;;;17.05;100.00;99275.38;5093655;28;20032;-47
2022/04/15 16:14:18;;;;;;;9.52;2.10;;;;;;;17.02;100.00;99292.13;5089866;28;20760;-49
2022/04/15 16:16:44;;;;;;;9.57;2.10;;;;;;;17.02;100.00;99281.59;5085958;28;20206;-49
2022/04/15 16:19:09;;;;;;;9.70;2.40;;;;;;;17.04;100.00;99295.56;5073935;28;20433;-54
2022/04/15 16:21:35;;;;;;;8.20;2.15;;;;;;;17.07;100.00;99294.63;5097452;28;20505;-48
2022/04/15 16:24:01;;;;;;;11.48;1.95;;;;;;;17.10;100.00;99291.91;5090868;28;20024;-48
2022/04/15 16:26:27;;;;;;;8.40;2.00;;;;;;;17.02;100.00;99281.59;5083418;28;20103;-56
2022/04/15 16:28:52;;;;;;;7.82;2.10;;;;;;;17.13;100.00;99291.84;5086614;28;20021;-50
2022/04/15 16:31:18;;;;;;;6.93;2.00;;;;;;;17.21;100.00;99303.00;5091752;28;20042;-50
2022/04/15 16:33:44;;;;;;;7.85;1.80;;;;;;;17.29;100.00;99291.41;5063801;28;20030;-53
2022/04/15 16:36:10;;;;;;;8.75;2.17;;;;;;;17.36;100.00;99301.72;5091497;28;20139;-49
2022/04/15 16:38:35;;;;;;;7.50;1.80;;;;;;;17.39;100.00;99295.50;5081334;28;20036;-48
2022/04/15 16:41:01;;;;;;;10.10;1.95;;;;;;;17.47;100.00;99296.16;5081014;28;20063;-48
2022/04/15 16:43:27;;;;;;;8.80;1.98;;;;;;;17.56;100.00;99295.03;5090609;28;20032;-49
2022/04/15 16:45:53;;;;;;;6.35;1.88;;;;;;;17.64;100.00;99294.81;5086563;28;20023;-51
2022/04/15 16:48:19;;;;;;;8.85;1.60;;;;;;;17.72;100.00;99298.09;5083057;28;20021;-48
2022/04/15 16:50:44;;;;;;;7.95;1.95;;;;;;;17.83;100.00;99298.63;5085692;28;20572;-49
2022/04/15 16:53:10;;;;;;;8.43;2.28;;;;;;;17.90;100.00;99299.31;5072420;28;20028;-49
2022/04/15 17:01:06;;;;;;;8.48;1.88;;;;;;;18.20;100.00;99279.03;5081196;28;20043;-49
2022/04/15 17:03:32;;;;;;;8.45;1.80;;;;;;;18.31;100.00;99283.13;5080283;28;20095;-52
2022/04/15 17:05:57;;;;;;;10.85;2.17;;;;;;;18.35;100.00;99275.03;5078922;28;20827;-50
2022/04/15 17:08:23;;;;;;;9.75;1.95;;;;;;;18.54;100.00;99271.81;5046388;28;20032;-48
2022/04/15 17:10:49;;;;;;;12.75;2.15;;;;;;;18.73;100.00;99277.31;5079957;28;20036;-58
2022/04/15 17:13:24;;;;;;;12.25;2.03;;;;;;;18.84;99.70;99279.59;5078144;28;20728;-58
2022/04/15 17:15:50;;;;;;;13.18;2.22;;;;;;;18.91;98.37;99282.00;5063679;28;20077;-55
2022/04/15 17:18:16;;;;;;;10.70;1.85;;;;;;;18.95;97.79;99281.91;5078244;28;20043;-57
2022/04/15 17:20:42;;;;;;;15.23;1.80;;;;;;;18.93;96.97;99279.31;5055147;28;20033;-55
2022/04/15 17:23:08;;;;;;;12.73;1.70;;;;;;;18.96;97.89;99289.78;5057305;28;20024;-54
2022/04/15 17:25:33;;;;;;;11.63;1.92;;;;;;;18.90;98.47;99295.25;5078597;28;20047;-58
